Terminal Aerodrome Forecast
Issued by NWS Grand Forks, ND

Home | Current Version | Previous Version | Text Only | Print | Product List | Glossary Off
Versions: 1 2 3 4 5 6 7 8 9 10 11 12 13 14 15 16 17 18 19 20

782
FTUS43 KFGF 052339
TAFFAR
TAF
KFAR 052339Z 0600/0624 09007KT 4SM -SN OVC020
     FM060200 32011KT 1 1/2SM -SN OVC010
     FM060300 29012KT P6SM OVC003
      TEMPO 0603/0604 3/4SM -SN
     FM060500 27014G22KT 2SM -SN OVC008
     FM060700 26017G26KT 3SM -SN OVC010
     FM060900 24019G28KT 3SM -SN OVC015
     FM061200 24018G27KT 2SM -SN OVC015
     FM061400 26019G27KT 1 1/2SM -SN OVC015
     FM061500 27020G28KT 1SM -SN BLSN OVC015
     FM061800 28027G38KT 3/4SM -SN BLSN OVC008=

USA.gov is the U.S. government's official web portal to all federal, state and local government web resources and services.